Time;durP1;ratioP1;P1;durP2;ratioP2;P2;SDS_P1;SDS_P2;PMS_P1;PMS_P2;Temp;Humidity;BMP_temperature;BMP_pressure;BME280_temperature;BME280_humidity;BME280_pressure;Samples;Min_cycle;Max_cycle;Signal;HPM_P1;HPM_P2
2022/01/01 00:00:16;;;;;;;72.40;39.10;;;;;;;;;;5029282;28;20037;-60
2022/01/01 00:02:43;;;;;;;91.50;47.35;;;;;;;;;;5029113;28;20081;-59
2022/01/01 00:05:10;;;;;;;84.05;43.47;;;;;;;;;;5044107;28;20029;-60
2022/01/01 00:07:39;;;;;;;79.32;39.05;;;;;;;;;;5052074;28;20411;-59
2022/01/01 00:10:08;;;;;;;75.32;38.92;;;9.50;99.90;;;;;;5053042;28;20041;-60
2022/01/01 00:12:34;;;;;;;82.95;43.30;;;9.80;99.90;;;;;;5052450;28;20044;-60
2022/01/01 00:15:01;;;;;;;85.07;39.78;;;;;;;;;;5052673;28;20057;-59
2022/01/01 00:17:27;;;;;;;65.75;35.70;;;;;;;;;;5052579;28;20406;-60
2022/01/01 00:19:53;;;;;;;70.88;36.45;;;;;;;;;;5053045;28;20411;-59
2022/01/01 00:22:19;;;;;;;69.97;36.10;;;9.90;99.90;;;;;;5051758;28;20037;-59
2022/01/01 00:24:45;;;;;;;80.47;36.65;;;;;;;;;;5052410;28;20041;-60
2022/01/01 00:27:11;;;;;;;72.72;37.90;;;9.90;99.90;;;;;;5051198;28;20037;-59
2022/01/01 00:29:37;;;;;;;65.95;31.55;;;;;;;;;;5032536;28;20176;-60
2022/01/01 00:32:03;;;;;;;62.72;34.08;;;;;;;;;;5032531;28;20045;-60
2022/01/01 00:34:29;;;;;;;65.95;31.77;;;;;;;;;;5040112;28;20072;-60
2022/01/01 00:36:55;;;;;;;57.40;26.90;;;;;;;;;;5051465;28;20079;-59
2022/01/01 00:39:21;;;;;;;58.65;27.25;;;;;;;;;;5034199;28;20072;-60
2022/01/01 00:41:47;;;;;;;57.00;25.20;;;;;;;;;;5052459;28;20111;-59
2022/01/01 00:44:13;;;;;;;53.70;22.60;;;;;;;;;;5051502;28;20415;-60
2022/01/01 00:46:39;;;;;;;48.80;20.50;;;;;;;;;;5037098;28;20038;-59
2022/01/01 00:49:06;;;;;;;51.35;22.50;;;;;;;;;;5032146;28;20064;-60
2022/01/01 00:51:32;;;;;;;49.25;20.98;;;;;;;;;;5046140;28;20181;-60
2022/01/01 00:53:58;;;;;;;38.58;17.73;;;;;;;;;;5033635;28;20067;-60
2022/01/01 00:56:24;;;;;;;47.40;18.30;;;;;;;;;;5030071;28;20048;-59
2022/01/01 00:58:50;;;;;;;46.85;16.25;;;;;;;;;;5030747;28;20396;-60
2022/01/01 01:01:15;;;;;;;43.97;17.55;;;9.70;99.90;;;;;;5031364;28;20041;-60
2022/01/01 01:03:41;;;;;;;59.72;21.70;;;9.70;99.90;;;;;;5015059;28;20617;-60
2022/01/01 01:06:07;;;;;;;50.45;21.20;;;;;;;;;;5030094;28;20041;-60
2022/01/01 01:08:33;;;;;;;64.60;26.75;;;;;;;;;;5051102;28;20044;-60
2022/01/01 01:11:01;;;;;;;62.05;29.60;;;;;;;;;;5052097;28;20041;-58
2022/01/01 01:13:31;;;;;;;47.47;19.23;;;;;;;;;;5033826;28;20049;-60
2022/01/01 01:15:57;;;;;;;47.72;18.83;;;;;;;;;;5051262;28;20051;-59
2022/01/01 01:18:23;;;;;;;56.45;21.27;;;;;;;;;;5051807;28;20469;-60
2022/01/01 01:20:48;;;;;;;54.70;24.13;;;9.40;99.90;;;;;;5051224;28;20037;-61
2022/01/01 01:23:14;;;;;;;53.95;24.10;;;9.40;99.90;;;;;;5051945;28;20033;-59
2022/01/01 01:25:41;;;;;;;57.13;25.45;;;;;;;;;;5050130;28;20036;-60
2022/01/01 01:28:10;;;;;;;58.72;25.65;;;;;;;;;;5051000;28;20522;-60
2022/01/01 01:30:37;;;;;;;58.97;23.98;;;9.20;99.90;;;;;;5047165;28;20029;-60
2022/01/01 01:33:04;;;;;;;55.58;19.88;;;;;;;;;;5051169;28;20037;-60
2022/01/01 01:35:30;;;;;;;54.25;21.42;;;;;;;;;;5030001;28;20048;-60
2022/01/01 01:37:55;;;;;;;82.90;38.85;;;9.10;99.90;;;;;;5049492;28;20411;-60
2022/01/01 01:40:21;;;;;;;121.80;64.90;;;;;;;;;;5050727;28;20120;-58
2022/01/01 01:42:47;;;;;;;115.57;63.40;;;;;;;;;;5033760;28;20491;-60
2022/01/01 01:45:17;;;;;;;101.93;51.40;;;;;;;;;;5049685;28;20424;-59
2022/01/01 01:47:43;;;;;;;94.53;42.00;;;;;;;;;;5051011;28;20045;-60
2022/01/01 01:50:11;;;;;;;80.43;36.00;;;;;;;;;;5050735;28;20044;-59
2022/01/01 01:52:38;;;;;;;76.65;35.05;;;;;;;;;;5050832;28;20044;-59
2022/01/01 01:55:06;;;;;;;75.72;33.78;;;;;;;;;;5050088;28;20037;-60
2022/01/01 01:57:34;;;;;;;91.88;33.20;;;;;;;;;;5050770;28;20069;-60
2022/01/01 02:00:00;;;;;;;81.80;33.22;;;;;;;;;;5050543;28;20105;-59
2022/01/01 02:02:26;;;;;;;83.03;36.15;;;;;;;;;;5044868;28;20041;-59
2022/01/01 02:04:52;;;;;;;90.50;37.55;;;9.00;99.90;;;;;;5049148;28;20041;-60
2022/01/01 02:07:18;;;;;;;83.28;33.85;;;;;;;;;;5050735;28;20040;-60
2022/01/01 02:09:44;;;;;;;82.22;33.30;;;8.90;99.90;;;;;;5050368;28;20117;-60
2022/01/01 02:12:09;;;;;;;84.97;32.75;;;9.20;99.90;;;;;;5049993;28;20116;-59
2022/01/01 02:17:24;;;;;;;87.65;33.03;;;;;;;;;;5032626;28;20604;-60
2022/01/01 02:19:54;;;;;;;94.80;37.97;;;;;;;;;;5050389;28;20120;-60
2022/01/01 02:22:20;;;;;;;99.07;38.10;;;;;;;;;;5049497;28;20475;-60
2022/01/01 02:24:46;;;;;;;93.93;38.92;;;;;;;;;;5024432;28;20412;-60
2022/01/01 02:27:12;;;;;;;96.13;43.90;;;;;;;;;;5050067;28;20048;-59
2022/01/01 02:29:38;;;;;;;114.85;46.22;;;;;;;;;;5048012;28;20106;-60
2022/01/01 02:32:08;;;;;;;112.70;45.47;;;8.90;99.90;;;;;;5047676;28;20044;-60
2022/01/01 02:34:35;;;;;;;106.88;46.38;;;;;;;;;;5036990;28;20045;-59
2022/01/01 02:37:01;;;;;;;112.30;47.72;;;;;;;;;;5031852;28;20076;-60
2022/01/01 02:39:27;;;;;;;113.38;44.53;;;;;;;;;;5030414;28;20541;-59
2022/01/01 02:41:55;;;;;;;105.70;44.35;;;;;;;;;;5030206;28;20046;-59
2022/01/01 02:44:22;;;;;;;98.05;41.70;;;;;;;;;;5029532;28;20045;-60
2022/01/01 02:46:48;;;;;;;90.03;39.42;;;;;;;;;;5011841;28;20037;-59
2022/01/01 02:49:13;;;;;;;100.75;38.80;;;;;;;;;;5048562;28;20209;-60
2022/01/01 02:51:40;;;;;;;82.97;35.95;;;;;;;;;;5049886;28;20037;-58
2022/01/01 02:54:05;;;;;;;95.50;34.95;;;9.10;99.90;;;;;;5050073;28;20041;-60
2022/01/01 02:56:31;;;;;;;81.55;31.77;;;;;;;;;;5049459;28;20499;-59
2022/01/01 02:58:57;;;;;;;83.90;29.13;;;9.20;99.90;;;;;;5032630;28;20049;-59
2022/01/01 03:01:23;;;;;;;87.78;28.30;;;;;;;;;;5049618;28;20041;-59
2022/01/01 03:03:49;;;;;;;72.43;26.80;;;;;;;;;;5049736;28;20521;-58
2022/01/01 03:06:19;;;;;;;78.32;27.15;;;;;;;;;;5049617;28;20041;-59
2022/01/01 03:08:51;;;;;;;79.80;27.65;;;9.30;99.90;;;;;;5049732;28;20052;-60
2022/01/01 03:11:17;;;;;;;67.07;24.42;;;;;;;;;;5031627;28;20329;-59
2022/01/01 03:13:44;;;;;;;79.43;29.33;;;;;;;;;;5050399;28;20090;-59
2022/01/01 03:16:10;;;;;;;75.65;26.38;;;9.10;99.90;;;;;;5049559;28;20037;-59
2022/01/01 03:18:36;;;;;;;78.30;28.33;;;;;;;;;;5049551;28;20071;-59
2022/01/01 03:21:02;;;;;;;85.78;30.15;;;;;;;;;;5049219;28;20053;-59
2022/01/01 03:23:28;;;;;;;76.55;29.25;;;;;;;;;;5050326;28;20059;-59
2022/01/01 03:25:54;;;;;;;86.45;28.10;;;;;;;;;;5049324;28;20037;-59
2022/01/01 03:28:20;;;;;;;86.18;29.95;;;;;;;;;;5049748;28;20041;-59
2022/01/01 03:30:46;;;;;;;81.20;29.20;;;9.00;99.90;;;;;;5049431;28;20036;-60
2022/01/01 03:33:12;;;;;;;82.28;28.02;;;;;;;;;;5050070;28;20033;-59
2022/01/01 03:35:38;;;;;;;84.47;29.17;;;;;;;;;;5031333;28;20055;-58
2022/01/01 03:38:04;;;;;;;83.93;28.60;;;9.00;99.90;;;;;;5049187;28;20407;-59
2022/01/01 03:40:29;;;;;;;89.97;29.77;;;9.00;99.90;;;;;;5052234;28;20033;-60
2022/01/01 03:42:55;;;;;;;81.40;29.23;;;;;;;;;;5052941;28;20410;-59
2022/01/01 03:45:21;;;;;;;72.90;26.92;;;;;;;;;;5035218;28;20045;-57
2022/01/01 03:47:47;;;;;;;82.25;28.15;;;;;;;;;;5053663;28;20608;-58
2022/01/01 03:50:13;;;;;;;78.55;26.52;;;;;;;;;;5053790;28;20045;-59
2022/01/01 03:52:43;;;;;;;82.07;27.75;;;9.10;99.90;;;;;;5053222;28;20490;-59
2022/01/01 03:55:10;;;;;;;96.53;28.98;;;;;;;;;;5052946;28;20037;-58
2022/01/01 03:57:36;;;;;;;69.63;25.33;;;9.10;99.90;;;;;;5053624;28;20045;-59
2022/01/01 04:00:02;;;;;;;73.45;27.20;;;9.10;99.90;;;;;;5053559;28;20044;-58
2022/01/01 04:02:28;;;;;;;75.05;26.90;;;;;;;;;;5053285;28;20458;-59
2022/01/01 04:04:54;;;;;;;82.22;29.13;;;;;;;;;;5053037;28;20037;-60
2022/01/01 04:07:20;;;;;;;86.05;31.77;;;9.20;99.90;;;;;;5053469;28;20041;-60
2022/01/01 04:09:46;;;;;;;84.38;31.50;;;;;;;;;;5053302;28;20041;-60
2022/01/01 04:12:12;;;;;;;87.78;32.10;;;;;;;;;;5053060;28;20045;-59
2022/01/01 04:14:37;;;;;;;79.13;30.25;;;;;;;;;;5052849;28;20521;-59
2022/01/01 04:17:03;;;;;;;77.90;34.08;;;;;;;;;;5035249;28;20055;-60
2022/01/01 04:19:39;;;;;;;89.65;35.25;;;;;;;;;;5052860;28;20045;-60
2022/01/01 04:22:05;;;;;;;86.53;33.63;;;;;;;;;;5052977;28;20494;-60
2022/01/01 04:24:31;;;;;;;92.43;37.03;;;9.20;99.90;;;;;;5052524;28;20043;-60
2022/01/01 04:26:57;;;;;;;99.28;35.33;;;;;;;;;;5052732;28;20041;-60
2022/01/01 04:29:23;;;;;;;94.20;35.13;;;;;;;;;;5052979;28;20108;-59
2022/01/01 04:31:49;;;;;;;101.63;35.20;;;9.20;99.90;;;;;;5052287;28;20048;-60
2022/01/01 04:34:15;;;;;;;87.20;32.00;;;9.20;99.90;;;;;;5052294;28;20123;-60
2022/01/01 04:36:49;;;;;;;83.72;32.15;;;;;;;;;;5052284;28;20084;-59
2022/01/01 04:39:15;;;;;;;84.20;30.77;;;;;;;;;;5052477;28;20116;-60
2022/01/01 04:41:41;;;;;;;81.20;29.30;;;;;;;;;;5052908;28;20477;-59
2022/01/01 04:44:08;;;;;;;83.07;28.73;;;;;;;;;;5047375;28;20469;-58
2022/01/01 04:46:34;;;;;;;79.13;29.08;;;;;;;;;;5052243;28;20037;-60
2022/01/01 04:49:00;;;;;;;74.72;30.35;;;;;;;;;;5017858;28;20468;-60
2022/01/01 04:51:27;;;;;;;76.10;30.33;;;;;;;;;;5033901;28;20144;-59
2022/01/01 04:53:58;;;;;;;77.85;32.42;;;9.60;99.90;;;;;;5052538;28;20075;-59
2022/01/01 04:56:25;;;;;;;104.80;34.25;;;;;;;;;;5051309;28;20124;-60
2022/01/01 04:58:50;;;;;;;95.47;37.78;;;;;;;;;;5052264;28;20037;-59
2022/01/01 05:01:18;;;;;;;106.40;37.00;;;;;;;;;;5051525;28;20525;-59
2022/01/01 05:03:44;;;;;;;108.90;39.00;;;;;;;;;;5051639;28;20056;-59
2022/01/01 05:06:10;;;;;;;109.50;38.70;;;9.70;99.90;;;;;;5051590;28;20045;-60
2022/01/01 05:08:36;;;;;;;112.15;37.17;;;;;;;;;;5051826;28;20073;-59
2022/01/01 05:11:02;;;;;;;110.10;35.28;;;9.80;99.90;;;;;;5034257;28;20120;-58
2022/01/01 05:13:28;;;;;;;99.18;30.33;;;;;;;;;;5033986;28;20045;-59
2022/01/01 05:15:55;;;;;;;99.18;35.08;;;;;;;;;;5051507;28;20056;-59
2022/01/01 05:18:22;;;;;;;99.53;32.53;;;;;;;;;;5051344;28;20048;-59
2022/01/01 05:20:48;;;;;;;93.53;29.42;;;;;;;;;;5052102;28;20048;-60
2022/01/01 05:23:14;;;;;;;102.75;30.45;;;;;;;;;;5051459;28;20039;-60
2022/01/01 05:25:40;;;;;;;82.85;27.98;;;;;;;;;;5051286;28;20447;-59
2022/01/01 05:28:06;;;;;;;101.75;30.20;;;;;;;;;;5051444;28;20466;-60
2022/01/01 05:30:32;;;;;;;81.82;26.80;;;;;;;;;;5050976;28;20130;-60
2022/01/01 05:32:59;;;;;;;83.38;25.75;;;;;;;;;;5051739;28;20045;-60
2022/01/01 05:35:25;;;;;;;84.75;26.02;;;;;;;;;;5033352;28;20472;-60
2022/01/01 05:37:51;;;;;;;73.50;24.40;;;;;;;;;;5051917;28;20045;-60
2022/01/01 05:40:16;;;;;;;74.50;24.63;;;10.40;99.90;;;;;;5051564;28;20040;-60
2022/01/01 05:42:42;;;;;;;64.93;22.15;;;10.50;99.90;;;;;;5051541;28;20037;-60
2022/01/01 05:45:08;;;;;;;66.95;23.35;;;10.50;99.90;;;;;;5050077;28;20507;-60
2022/01/01 05:47:34;;;;;;;80.45;26.27;;;;;;;;;;5051424;28;20487;-60
2022/01/01 05:50:00;;;;;;;68.05;21.65;;;;;;;;;;5033903;28;20091;-59
2022/01/01 05:52:26;;;;;;;57.65;23.52;;;;;;;;;;5051134;28;20056;-60
2022/01/01 05:54:52;;;;;;;61.83;21.77;;;;;;;;;;5050151;28;20094;-59
2022/01/01 05:57:18;;;;;;;51.80;20.95;;;;;;;;;;5051392;28;20045;-59
2022/01/01 05:59:44;;;;;;;56.67;20.33;;;;;;;;;;5050555;28;20047;-60
2022/01/01 06:02:10;;;;;;;54.70;22.25;;;;;;;;;;5050489;28;20123;-60
2022/01/01 06:04:37;;;;;;;47.53;19.83;;;;;;;;;;5049900;28;20037;-60
2022/01/01 06:07:03;;;;;;;57.25;19.70;;;;;;;;;;5051038;28;20402;-60
2022/01/01 06:09:29;;;;;;;45.28;18.08;;;;;;;;;;5050593;28;20392;-60
2022/01/01 06:11:55;;;;;;;45.50;18.17;;;;;;;;;;5050616;28;20072;-60
2022/01/01 06:14:21;;;;;;;49.38;19.17;;;10.50;99.90;;;;;;5050548;28;20048;-60
2022/01/01 06:16:47;;;;;;;51.97;18.90;;;;;;;;;;5050509;28;20045;-59
2022/01/01 06:19:13;;;;;;;44.17;17.10;;;10.70;99.90;;;;;;5050701;28;20495;-60
2022/01/01 06:21:39;;;;;;;48.15;18.73;;;;;;;;;;5050136;28;20052;-60
2022/01/01 06:24:05;;;;;;;44.45;17.30;;;;;;;;;;5070331;22;20465;-60
2022/01/01 06:26:31;;;;;;;48.03;18.00;;;;;;;;;;5104653;22;20101;-68
2022/01/01 06:28:57;;;;;;;42.50;18.27;;;;;;;;;;5090523;28;20040;-68
2022/01/01 06:31:23;;;;;;;42.15;17.48;;;10.60;99.90;;;;;;5089903;28;20043;-68
2022/01/01 06:33:49;;;;;;;41.17;16.45;;;;;;;;;;5090159;28;20058;-68
2022/01/01 06:36:17;;;;;;;42.38;16.83;;;;;;;;;;5089988;28;20044;-68
2022/01/01 06:38:44;;;;;;;48.67;15.82;;;10.70;99.90;;;;;;5069218;28;20072;-68
2022/01/01 06:41:11;;;;;;;53.03;18.05;;;10.50;99.90;;;;;;5055465;28;20040;-68
2022/01/01 06:43:38;;;;;;;50.38;16.88;;;;;;;;;;5072136;28;20083;-68
2022/01/01 06:46:04;;;;;;;33.80;15.85;;;;;;;;;;5071336;28;20509;-68
2022/01/01 06:48:30;;;;;;;46.28;17.50;;;;;;;;;;5090605;28;20311;-68
2022/01/01 06:50:56;;;;;;;39.80;17.83;;;;;;;;;;5090069;28;20050;-68
2022/01/01 06:53:22;;;;;;;43.28;17.88;;;;;;;;;;5090748;28;20545;-68
2022/01/01 06:55:47;;;;;;;45.47;18.48;;;10.50;99.90;;;;;;5089484;28;20111;-68
2022/01/01 06:58:13;;;;;;;42.42;18.30;;;;;;;;;;5090542;28;20040;-68
2022/01/01 07:00:40;;;;;;;44.80;19.38;;;;;;;;;;5090127;28;20060;-67
2022/01/01 07:03:06;;;;;;;57.85;21.50;;;;;;;;;;5089681;28;20401;-67
2022/01/01 07:05:32;;;;;;;51.90;21.98;;;10.60;99.90;;;;;;5090299;28;20040;-67
2022/01/01 07:07:58;;;;;;;56.75;22.85;;;10.70;99.90;;;;;;5072506;28;20111;-67
2022/01/01 07:10:23;;;;;;;65.78;23.08;;;11.10;99.90;;;;;;5071701;28;20600;-67
2022/01/01 07:12:49;;;;;;;58.38;23.65;;;;;;;;;;5089515;28;20040;-67
2022/01/01 07:15:16;;;;;;;57.45;23.45;;;;;;;;;;5093609;28;20067;-67
2022/01/01 07:17:42;;;;;;;57.40;24.17;;;;;;;;;;5075969;28;20044;-67
2022/01/01 07:20:09;;;;;;;60.60;25.58;;;;;;;;;;5075836;28;20055;-67
2022/01/01 07:22:44;;;;;;;58.58;24.55;;;;;;;;;;5094598;28;20040;-67
2022/01/01 07:25:12;;;;;;;58.05;24.38;;;10.80;99.90;;;;;;5092893;28;20571;-67
2022/01/01 07:27:38;;;;;;;66.20;25.70;;;10.90;99.90;;;;;;5094145;28;20063;-67
2022/01/01 07:30:05;;;;;;;63.17;29.20;;;;;;;;;;5094095;28;20036;-67
2022/01/01 07:32:31;;;;;;;64.95;28.05;;;;;;;;;;5094709;28;20043;-67
2022/01/01 07:34:57;;;;;;;69.18;26.92;;;;;;;;;;5093639;28;20105;-67
2022/01/01 07:37:22;;;;;;;65.38;28.40;;;;;;;;;;5074946;28;20039;-67
2022/01/01 07:39:48;;;;;;;66.90;28.85;;;;;;;;;;5093410;28;20111;-67
2022/01/01 07:42:15;;;;;;;64.55;28.85;;;;;;;;;;5093798;28;20502;-67
2022/01/01 07:44:41;;;;;;;72.85;29.25;;;;;;;;;;5092708;28;20044;-67
2022/01/01 07:47:07;;;;;;;76.05;29.00;;;;;;;;;;5093640;28;20074;-67
2022/01/01 07:49:34;;;;;;;73.75;30.17;;;;;;;;;;5090828;28;20063;-67
2022/01/01 07:52:00;;;;;;;66.10;30.88;;;;;;;;;;5081116;28;20047;-67
2022/01/01 07:54:26;;;;;;;68.10;31.63;;;;;;;;;;5074729;28;20044;-67
2022/01/01 07:56:52;;;;;;;64.80;31.05;;;;;;;;;;5072491;28;20040;-67
2022/01/01 07:59:18;;;;;;;63.67;31.00;;;;;;;;;;5073537;28;20044;-67
2022/01/01 08:01:44;;;;;;;64.65;31.77;;;11.00;99.90;;;;;;5073107;28;20084;-67
2022/01/01 08:04:10;;;;;;;85.50;34.90;;;;;;;;;;5073009;28;20035;-67
2022/01/01 08:06:36;;;;;;;67.18;31.05;;;10.80;99.90;;;;;;5072570;28;20040;-67
2022/01/01 08:09:02;;;;;;;66.68;32.75;;;;;;;;;;5073538;28;20446;-67
2022/01/01 08:11:28;;;;;;;72.68;32.30;;;;;;;;;;5072309;28;20045;-67
2022/01/01 08:13:54;;;;;;;71.15;31.95;;;;;;;;;;5073489;28;20041;-67
2022/01/01 08:16:20;;;;;;;68.47;30.70;;;10.60;99.90;;;;;;5071904;28;20568;-67
2022/01/01 08:18:46;;;;;;;66.40;31.35;;;;;;;;;;5072562;28;20051;-66
2022/01/01 08:21:12;;;;;;;72.85;32.70;;;;;;;;;;5072840;28;20045;-67
2022/01/01 08:23:38;;;;;;;70.88;33.17;;;;;;;;;;5072478;28;20092;-66
2022/01/01 08:26:04;;;;;;;69.43;31.50;;;;;;;;;;5091125;28;20067;-67
2022/01/01 08:28:30;;;;;;;74.45;32.15;;;;;;;;;;5092787;28;20036;-67
2022/01/01 08:30:56;;;;;;;84.05;36.00;;;;;;;;;;5093077;28;20044;-66
2022/01/01 08:33:22;;;;;;;78.90;35.95;;;10.50;99.90;;;;;;5092603;28;20036;-66
2022/01/01 08:35:48;;;;;;;84.82;36.35;;;;;;;;;;5091230;28;20059;-67
2022/01/01 08:38:14;;;;;;;76.93;34.97;;;;;;;;;;5092410;28;20522;-67
2022/01/01 08:40:40;;;;;;;75.18;34.03;;;10.30;99.90;;;;;;5092225;28;20076;-67
2022/01/01 08:43:06;;;;;;;69.22;34.22;;;;;;;;;;5092571;28;20078;-66
2022/01/01 08:45:33;;;;;;;72.53;32.85;;;;;;;;;;5090900;28;20040;-67
2022/01/01 08:47:59;;;;;;;64.32;32.72;;;10.60;99.90;;;;;;5092250;28;20405;-67
2022/01/01 08:50:24;;;;;;;74.90;33.67;;;10.40;99.90;;;;;;5077060;28;20051;-67
2022/01/01 08:52:50;;;;;;;66.25;31.35;;;;;;;;;;5072264;28;20048;-66
2022/01/01 08:55:16;;;;;;;64.93;32.47;;;;;;;;;;5070982;28;20113;-67
2022/01/01 08:57:42;;;;;;;71.03;32.78;;;;;;;;;;5072467;28;20046;-66
2022/01/01 09:00:10;;;;;;;64.43;32.55;;;9.90;99.90;;;;;;5071751;28;20037;-66
2022/01/01 09:02:36;;;;;;;73.45;32.95;;;10.40;99.90;;;;;;5072123;28;20165;-67
2022/01/01 09:05:02;;;;;;;67.38;31.85;;;;;;;;;;5071302;28;20066;-66
2022/01/01 09:07:29;;;;;;;71.25;31.15;;;;;;;;;;5053742;28;20506;-66
2022/01/01 09:09:59;;;;;;;64.63;34.08;;;10.70;99.90;;;;;;5071900;28;20041;-67
2022/01/01 09:12:26;;;;;;;76.45;34.47;;;;;;;;;;5071444;28;20498;-66
2022/01/01 09:14:52;;;;;;;68.18;33.10;;;;;;;;;;5071214;28;20040;-67
2022/01/01 09:17:18;;;;;;;68.45;32.28;;;;;;;;;;5071685;28;20041;-66
2022/01/01 09:19:44;;;;;;;65.32;32.85;;;;;;;;;;5071560;28;20040;-67
2022/01/01 09:22:10;;;;;;;63.63;29.88;;;;;;;;;;5071896;28;20483;-67
2022/01/01 09:24:36;;;;;;;59.53;31.27;;;;;;;;;;5079534;28;20051;-66
2022/01/01 09:27:03;;;;;;;54.78;28.92;;;;;;;;;;5091903;28;20043;-66
2022/01/01 09:29:29;;;;;;;58.85;29.02;;;;;;;;;;5091350;28;20184;-67
2022/01/01 09:31:55;;;;;;;52.53;27.25;;;;;;;;;;5091519;28;20036;-66
2022/01/01 09:34:21;;;;;;;48.88;23.95;;;;;;;;;;5091250;28;20176;-67
2022/01/01 09:36:49;;;;;;;47.15;25.25;;;;;;;;;;5091865;28;20090;-66
2022/01/01 09:39:16;;;;;;;48.90;25.35;;;;;;;;;;5091435;28;20044;-67
2022/01/01 09:41:43;;;;;;;51.17;25.23;;;;;;;;;;5091755;28;20190;-66
2022/01/01 09:44:12;;;;;;;51.72;24.92;;;;;;;;;;5091190;28;20044;-66
2022/01/01 09:46:38;;;;;;;49.67;24.23;;;;;;;;;;5090682;28;20342;-67
2022/01/01 09:49:04;;;;;;;41.03;21.75;;;;;;;;;;5091409;28;20402;-66
2022/01/01 09:51:31;;;;;;;43.80;21.92;;;;;;;;;;5090908;28;20044;-67
2022/01/01 09:53:57;;;;;;;45.72;20.63;;;;;;;;;;5090642;28;20048;-66
2022/01/01 09:56:23;;;;;;;38.30;20.27;;;;;;;;;;5072946;28;20295;-67
2022/01/01 09:58:49;;;;;;;41.40;19.85;;;;;;;;;;5091056;28;20143;-66
2022/01/01 10:01:15;;;;;;;38.30;18.00;;;;;;;;;;5091251;28;20035;-67
2022/01/01 10:03:43;;;;;;;33.15;17.25;;;;;;;;;;5072335;28;20055;-66
2022/01/01 10:06:14;;;;;;;32.97;17.60;;;10.80;99.90;;;;;;5090675;28;20032;-66
2022/01/01 10:08:41;;;;;;;30.60;15.98;;;10.70;99.90;;;;;;5090109;28;20111;-66
2022/01/01 10:11:08;;;;;;;28.33;14.60;;;;;;;;;;5089605;28;20043;-66
2022/01/01 10:13:39;;;;;;;29.58;14.93;;;10.80;99.90;;;;;;5085208;28;20041;-66
2022/01/01 10:16:06;;;;;;;28.83;15.02;;;;;;;;;;5083636;28;20032;-66
2022/01/01 10:18:33;;;;;;;38.17;16.30;;;;;;;;;;5088337;28;20451;-66
2022/01/01 10:21:00;;;;;;;27.48;13.77;;;;;;;;;;5088240;28;20036;-67
2022/01/01 10:23:31;;;;;;;29.50;13.70;;;;;;;;;;5070412;28;20049;-67
2022/01/01 10:29:05;;;;;;;26.92;13.10;;;;;;;;;;5087450;28;20071;-66
2022/01/01 10:31:33;;;;;;;24.08;12.55;;;;;;;;;;5090321;28;20125;-66
2022/01/01 10:33:59;;;;;;;25.73;12.80;;;;;;;;;;5090793;28;20040;-66
2022/01/01 10:36:25;;;;;;;24.38;13.60;;;;;;;;;;5076311;28;20068;-67
2022/01/01 10:38:51;;;;;;;22.67;13.07;;;;;;;;;;5082491;28;20046;-66
2022/01/01 10:41:18;;;;;;;27.20;12.10;;;11.30;99.90;;;;;;5072271;28;20484;-67
2022/01/01 10:43:44;;;;;;;24.30;12.23;;;;;;;;;;5087189;28;20124;-67
2022/01/01 10:46:12;;;;;;;23.90;12.60;;;;;;;;;;5069111;28;20563;-66
2022/01/01 10:48:42;;;;;;;24.08;12.20;;;;;;;;;;5070119;28;20399;-66
2022/01/01 10:51:10;;;;;;;25.38;12.02;;;11.40;99.90;;;;;;5057667;28;20684;-66
2022/01/01 10:53:37;;;;;;;21.20;12.10;;;;;;;;;;5076274;28;20070;-67
2022/01/01 10:56:04;;;;;;;25.55;12.07;;;;;;;;;;5080495;28;20032;-66
2022/01/01 10:58:34;;;;;;;26.13;11.95;;;11.30;99.90;;;;;;5068020;28;20410;-66
2022/01/01 11:01:05;;;;;;;25.33;12.07;;;11.70;99.90;;;;;;5069273;28;20070;-67
2022/01/01 11:03:41;;;;;;;23.10;11.40;;;;;;;;;;5084233;28;20036;-66
2022/01/01 11:06:10;;;;;;;27.17;12.68;;;;;;;;;;5070383;28;20807;-66
2022/01/01 11:08:37;;;;;;;28.77;12.27;;;11.30;99.90;;;;;;5076477;28;20402;-66
2022/01/01 11:11:03;;;;;;;18.05;10.63;;;;;;;;;;5077157;28;20033;-66
2022/01/01 11:13:31;;;;;;;19.40;10.88;;;11.80;99.90;;;;;;5078362;28;20052;-67
2022/01/01 11:15:57;;;;;;;17.15;9.73;;;;;;;;;;5059333;28;20075;-66
2022/01/01 11:18:25;;;;;;;24.08;12.02;;;;;;;;;;5081422;28;20037;-67
2022/01/01 11:20:52;;;;;;;25.15;11.20;;;12.00;99.90;;;;;;5075919;28;20036;-66
2022/01/01 11:23:19;;;;;;;22.52;11.88;;;;;;;;;;5080889;28;21102;-67
2022/01/01 11:25:45;;;;;;;24.00;9.95;;;11.90;99.90;;;;;;5054392;28;20052;-67
2022/01/01 11:28:13;;;;;;;19.77;10.98;;;;;;;;;;5073436;28;20032;-67
2022/01/01 11:30:45;;;;;;;20.67;10.00;;;;;;;;;;5058671;28;20123;-68
2022/01/01 11:33:12;;;;;;;19.15;9.60;;;;;;;;;;5082036;28;20062;-67
2022/01/01 11:35:53;;;;;;;19.52;9.80;;;;;;;;;;5065711;28;20040;-67
2022/01/01 11:38:19;;;;;;;21.88;10.27;;;;;;;;;;5056268;28;20636;-68
2022/01/01 11:40:48;;;;;;;22.65;11.05;;;;;;;;;;5077884;28;20101;-67
2022/01/01 11:43:37;;;;;;;18.48;9.05;;;12.00;99.90;;;;;;5082027;28;20052;-68
2022/01/01 11:46:11;;;;;;;20.17;9.80;;;11.70;99.90;;;;;;5063160;28;20051;-67
2022/01/01 11:48:41;;;;;;;;;;;11.40;99.90;;;;;;5081780;28;20551;-67
2022/01/01 11:51:20;;;;;;;19.30;8.50;;;;;;;;;;5077942;28;19964;-68
2022/01/01 11:54:05;;;;;;;19.38;9.23;;;;;;;;;;5060044;28;20047;-68
2022/01/01 11:56:49;;;;;;;15.45;8.93;;;;;;;;;;5045804;28;20032;-67
2022/01/01 11:59:26;;;;;;;19.73;9.02;;;;;;;;;;5077712;28;20139;-67
2022/01/01 12:01:53;;;;;;;16.73;8.48;;;;;;;;;;5083852;28;20040;-67
2022/01/01 12:04:28;;;;;;;18.35;7.88;;;;;;;;;;5077760;28;20588;-68
2022/01/01 12:06:58;;;;;;;15.15;7.43;;;12.00;99.90;;;;;;5089374;28;20032;-68
2022/01/01 12:09:24;;;;;;;17.48;7.72;;;;;;;;;;5087379;28;20465;-67
2022/01/01 12:11:54;;;;;;;19.23;8.30;;;;;;;;;;5089351;28;20044;-67
2022/01/01 12:14:22;;;;;;;18.05;8.30;;;;;;;;;;5080225;28;20165;-67
2022/01/01 12:16:50;;;;;;;22.58;9.90;;;;;;;;;;5066676;28;20042;-67
2022/01/01 12:19:19;;;;;;;14.85;7.93;;;;;;;;;;5085000;28;20045;-68
2022/01/01 12:21:47;;;;;;;17.98;8.63;;;;;;;;;;5081278;28;20040;-67
2022/01/01 12:24:20;;;;;;;24.67;11.35;;;;;;;;;;5088945;28;20079;-67
2022/01/01 12:26:52;;;;;;;15.40;8.70;;;12.00;99.90;;;;;;5062706;22;20068;-61
2022/01/01 12:29:22;;;;;;;18.08;8.77;;;;;;;;;;5052551;28;20496;-61
2022/01/01 12:31:56;;;;;;;18.48;9.68;;;12.30;99.90;;;;;;5052235;28;20173;-61
2022/01/01 12:34:22;;;;;;;19.73;9.55;;;;;;;;;;5052421;28;20047;-61
2022/01/01 12:36:53;;;;;;;17.50;8.70;;;;;;;;;;5033944;28;20040;-60
2022/01/01 12:39:26;;;;;;;16.63;8.55;;;;;;;;;;5049981;28;20443;-59
2022/01/01 12:41:55;;;;;;;15.60;8.88;;;;;;;;;;5048593;28;20228;-61
2022/01/01 12:44:23;;;;;;;14.52;7.90;;;12.10;99.90;;;;;;5050347;28;20041;-61
2022/01/01 12:54:02;;;;;;;21.02;9.57;;;11.60;99.90;;;;;;5048047;28;20056;-61
2022/01/01 12:56:29;;;;;;;19.63;9.20;;;;;;;;;;5049176;28;20052;-61
2022/01/01 12:59:09;;;;;;;18.35;9.77;;;12.00;99.90;;;;;;5050439;28;20045;-60
2022/01/01 13:01:58;;;;;;;20.08;10.85;;;;;;;;;;5050653;28;20095;-61
2022/01/01 13:04:40;;;;;;;18.52;9.93;;;;;;;;;;5040446;28;20044;-61
2022/01/01 13:07:22;;;;;;;22.67;11.20;;;;;;;;;;5042978;28;20049;-61
2022/01/01 13:09:50;;;;;;;19.23;10.98;;;;;;;;;;5049556;28;20059;-61
2022/01/01 13:12:18;;;;;;;19.20;11.38;;;;;;;;;;5049193;28;20037;-62
2022/01/01 13:14:47;;;;;;;21.67;11.73;;;;;;;;;;5047646;28;20045;-61
2022/01/01 13:17:14;;;;;;;22.67;11.95;;;;;;;;;;5032079;28;20041;-61
2022/01/01 13:19:47;;;;;;;21.63;13.02;;;12.70;99.90;;;;;;5049483;28;20103;-61
2022/01/01 13:22:34;;;;;;;20.70;12.13;;;;;;;;;;5048284;28;20048;-61
2022/01/01 13:25:00;;;;;;;20.60;12.10;;;;;;;;;;5048668;28;20044;-61
2022/01/01 13:27:29;;;;;;;21.25;11.77;;;12.20;99.70;;;;;;5050130;28;20107;-61
2022/01/01 13:30:06;;;;;;;19.48;11.02;;;;;;;;;;5048915;28;20037;-61
2022/01/01 13:32:38;;;;;;;22.40;12.02;;;;;;;;;;5047910;28;20036;-61
2022/01/01 13:35:18;;;;;;;19.15;11.57;;;13.10;99.90;;;;;;5042658;28;21477;-61
2022/01/01 13:37:58;;;;;;;18.85;11.43;;;;;;;;;;5047326;28;20091;-61
2022/01/01 13:40:30;;;;;;;21.13;10.80;;;;;;;;;;5046826;28;20115;-61
2022/01/01 13:43:08;;;;;;;17.42;10.70;;;;;;;;;;5049559;28;20115;-61
2022/01/01 13:46:12;;;;;;;18.73;10.50;;;13.40;98.90;;;;;;5029622;28;20044;-60
2022/01/01 13:52:50;;;;;;;21.00;10.95;;;;;;;;;;5048006;28;20083;-61
2022/01/01 13:55:27;;;;;;;20.90;11.35;;;;;;;;;;4967952;28;20093;-61
2022/01/01 13:57:59;;;;;;;18.98;11.05;;;;;;;;;;5010607;28;20114;-61
2022/01/01 14:00:49;;;;;;;17.40;11.05;;;;;;;;;;5050325;28;20044;-61
2022/01/01 14:03:22;;;;;;;18.85;11.57;;;12.00;99.30;;;;;;5049955;28;20063;-60
2022/01/01 14:05:51;;;;;;;19.65;11.48;;;;;;;;;;5050123;28;20037;-61
2022/01/01 14:08:46;;;;;;;23.85;11.00;;;;;;;;;;5049528;28;20037;-61